createdAt,value
2019-01-27T00:00:11.007Z,873.88
2019-01-27T00:01:11.009Z,873.85
2019-01-27T00:02:10.981Z,873.86
2019-01-27T00:03:10.696Z,873.87
2019-01-27T00:04:10.963Z,873.88
2019-01-27T00:05:10.931Z,873.93
2019-01-27T00:06:10.949Z,873.89
2019-01-27T00:07:10.659Z,873.87
2019-01-27T00:08:13.671Z,873.88
2019-01-27T00:09:10.916Z,873.88
2019-01-27T00:10:10.908Z,873.86
2019-01-27T00:11:10.899Z,873.87
2019-01-27T00:12:10.894Z,873.88
2019-01-27T00:13:10.883Z,873.85
2019-01-27T00:14:10.662Z,873.87
2019-01-27T00:15:10.879Z,873.87
2019-01-27T00:16:10.627Z,873.91
2019-01-27T00:17:10.889Z,873.94
2019-01-27T00:18:10.896Z,873.98
2019-01-27T00:19:10.586Z,873.99
2019-01-27T00:20:10.616Z,873.95
2019-01-27T00:21:10.614Z,873.99
2019-01-27T00:22:10.598Z,873.97
2019-01-27T00:23:10.591Z,873.97
2019-01-27T00:24:10.582Z,874.03
2019-01-27T00:25:10.805Z,874.06
2019-01-27T00:26:10.570Z,874.04
2019-01-27T00:27:10.569Z,874.09
2019-01-27T00:28:10.759Z,874.12
2019-01-27T00:29:10.754Z,874.15
2019-01-27T00:30:10.756Z,874.10
2019-01-27T00:31:10.533Z,874.06
2019-01-27T00:32:10.544Z,874.15
2019-01-27T00:33:10.905Z,874.13
2019-01-27T00:34:10.858Z,874.08
2019-01-27T00:35:10.475Z,874.05
2019-01-27T00:36:10.467Z,874.08
2019-01-27T00:37:10.455Z,874.09
2019-01-27T00:38:10.843Z,874.10
2019-01-27T00:39:10.835Z,874.08
2019-01-27T00:40:10.863Z,874.15
2019-01-27T00:41:10.458Z,874.16
2019-01-27T00:42:10.470Z,874.13
2019-01-27T00:43:10.684Z,874.17
2019-01-27T00:44:11.165Z,874.16
2019-01-27T00:45:10.409Z,874.18
2019-01-27T00:46:10.688Z,874.14
2019-01-27T00:47:10.687Z,874.20
2019-01-27T00:48:10.653Z,874.20
2019-01-27T00:49:10.677Z,874.20
2019-01-27T00:50:10.664Z,874.21
2019-01-27T00:51:10.648Z,874.24
2019-01-27T00:52:10.639Z,874.24
2019-01-27T00:53:10.390Z,874.27
2019-01-27T00:54:10.595Z,874.29
2019-01-27T00:55:10.609Z,874.29
2019-01-27T00:56:10.623Z,874.29
2019-01-27T00:57:10.319Z,874.30
2019-01-27T00:58:10.311Z,874.29
2019-01-27T00:59:10.343Z,874.27
2019-01-27T01:00:10.338Z,874.31
2019-01-27T01:01:10.561Z,874.29
2019-01-27T01:02:10.277Z,874.29
2019-01-27T01:03:10.318Z,874.30
2019-01-27T01:04:10.319Z,874.30
2019-01-27T01:05:10.561Z,874.31
2019-01-27T01:06:10.545Z,874.33
2019-01-27T01:07:10.484Z,874.35
2019-01-27T01:08:10.525Z,874.35
2019-01-27T01:09:10.241Z,874.34
2019-01-27T01:10:10.500Z,874.33
2019-01-27T01:11:10.522Z,874.28
2019-01-27T01:12:10.221Z,874.30
2019-01-27T01:13:10.494Z,874.31
2019-01-27T01:14:10.518Z,874.28
2019-01-27T01:15:10.499Z,874.28
2019-01-27T01:16:10.473Z,874.30
2019-01-27T01:17:10.179Z,874.30
2019-01-27T01:18:10.416Z,874.31
2019-01-27T01:19:10.414Z,874.29
2019-01-27T01:20:10.464Z,874.30
2019-01-27T01:21:10.396Z,874.30
2019-01-27T01:22:10.147Z,874.34
2019-01-27T01:23:10.410Z,874.28
2019-01-27T01:24:10.394Z,874.32
2019-01-27T01:25:10.368Z,874.32
2019-01-27T01:26:10.166Z,874.31
2019-01-27T01:27:10.398Z,874.32
2019-01-27T01:28:10.149Z,874.34
2019-01-27T01:29:10.355Z,874.34
2019-01-27T01:30:10.355Z,874.30
2019-01-27T01:31:10.131Z,874.32
2019-01-27T01:32:10.116Z,874.28
2019-01-27T01:33:10.113Z,874.28
2019-01-27T01:34:10.334Z,874.22
2019-01-27T01:35:10.309Z,874.26
2019-01-27T01:36:10.329Z,874.23
2019-01-27T01:37:10.351Z,874.28
2019-01-27T01:38:10.341Z,874.30
2019-01-27T01:39:10.328Z,874.27
2019-01-27T01:40:10.049Z,874.28
2019-01-27T01:41:10.289Z,874.32
2019-01-27T01:42:10.011Z,874.36
2019-01-27T01:43:10.006Z,874.34
2019-01-27T01:44:10.227Z,874.34
2019-01-27T01:45:09.993Z,874.36
2019-01-27T01:46:10.280Z,874.38
2019-01-27T01:47:10.015Z,874.36
2019-01-27T01:48:10.213Z,874.33
2019-01-27T01:49:10.242Z,874.32
2019-01-27T01:50:09.998Z,874.34
2019-01-27T01:51:10.214Z,874.33
2019-01-27T01:52:09.983Z,874.28
2019-01-27T01:53:10.209Z,874.32
2019-01-27T01:54:09.931Z,874.30
2019-01-27T01:55:10.224Z,874.31
2019-01-27T01:56:10.220Z,874.33
2019-01-27T01:57:10.202Z,874.35
2019-01-27T01:58:10.144Z,874.35
2019-01-27T01:59:09.901Z,874.36
2019-01-27T02:00:10.123Z,874.39
2019-01-27T02:01:10.157Z,874.35
2019-01-27T02:02:09.870Z,874.37
2019-01-27T02:03:10.106Z,874.38
2019-01-27T02:04:10.132Z,874.39
2019-01-27T02:05:09.849Z,874.40
2019-01-27T02:06:09.889Z,874.41
2019-01-27T02:07:09.836Z,874.45
2019-01-27T02:08:09.876Z,874.44
2019-01-27T02:09:09.858Z,874.50
2019-01-27T02:10:09.861Z,874.49
2019-01-27T02:11:09.805Z,874.53
2019-01-27T02:12:10.070Z,874.56
2019-01-27T02:13:09.837Z,874.56
2019-01-27T02:14:09.797Z,874.55
2019-01-27T02:15:10.057Z,874.57
2019-01-27T02:16:10.053Z,874.48
2019-01-27T02:17:09.811Z,874.50
2019-01-27T02:18:10.044Z,874.47
2019-01-27T02:19:10.021Z,874.39
2019-01-27T02:20:10.020Z,874.43
2019-01-27T02:21:09.750Z,874.41
2019-01-27T02:22:10.011Z,874.39
2019-01-27T02:23:10.004Z,874.40
2019-01-27T02:24:09.727Z,874.38
2019-01-27T02:25:09.751Z,874.40
2019-01-27T02:26:09.752Z,874.39
2019-01-27T02:27:09.966Z,874.36
2019-01-27T02:28:09.933Z,874.39
2019-01-27T02:29:09.959Z,874.40
2019-01-27T02:30:09.919Z,874.39
2019-01-27T02:31:09.681Z,874.40
2019-01-27T02:32:09.944Z,874.34
2019-01-27T02:33:09.891Z,874.34
2019-01-27T02:34:09.893Z,874.34
2019-01-27T02:35:09.920Z,874.33
2019-01-27T02:36:09.685Z,874.30
2019-01-27T02:37:09.910Z,874.27
2019-01-27T02:38:09.661Z,874.26
2019-01-27T02:39:09.629Z,874.25
2019-01-27T02:40:09.879Z,874.23
2019-01-27T02:41:09.912Z,874.26
2019-01-27T02:42:09.869Z,874.25
2019-01-27T02:43:09.891Z,874.24
2019-01-27T02:44:09.894Z,874.22
2019-01-27T02:45:09.572Z,874.21
2019-01-27T02:46:09.577Z,874.24
2019-01-27T02:47:09.591Z,874.26
2019-01-27T02:48:09.581Z,874.25
2019-01-27T02:49:09.797Z,874.21
2019-01-27T02:50:09.576Z,874.24
2019-01-27T02:51:09.580Z,874.25
2019-01-27T02:52:09.534Z,874.23
2019-01-27T02:53:09.772Z,874.27
2019-01-27T02:54:09.520Z,874.27
2019-01-27T02:55:09.782Z,874.21
2019-01-27T02:56:09.734Z,874.23
2019-01-27T02:57:09.766Z,874.25
2019-01-27T02:58:09.793Z,874.27
2019-01-27T02:59:09.476Z,874.22
2019-01-27T03:00:09.488Z,874.25
2019-01-27T03:01:09.501Z,874.24
2019-01-27T03:02:09.501Z,874.26
2019-01-27T03:03:09.457Z,874.25
2019-01-27T03:04:09.485Z,874.25
2019-01-27T03:05:09.487Z,874.28
2019-01-27T03:06:09.434Z,874.26
2019-01-27T03:07:09.728Z,874.26
2019-01-27T03:08:09.439Z,874.32
2019-01-27T03:09:09.413Z,874.27
2019-01-27T03:10:09.669Z,874.27
2019-01-27T03:11:09.642Z,874.29
2019-01-27T03:12:09.672Z,874.30
2019-01-27T03:13:09.624Z,874.27
2019-01-27T03:14:09.618Z,874.24
2019-01-27T03:15:09.618Z,874.30
2019-01-27T03:16:09.402Z,874.28
2019-01-27T03:17:09.662Z,874.26
2019-01-27T03:18:09.652Z,874.28
2019-01-27T03:19:09.648Z,874.29
2019-01-27T03:20:09.338Z,874.29
2019-01-27T03:21:09.342Z,874.27
2019-01-27T03:22:09.342Z,874.33
2019-01-27T03:23:09.325Z,874.32
2019-01-27T03:24:09.584Z,874.32
2019-01-27T03:25:09.606Z,874.35
2019-01-27T03:26:09.293Z,874.38
2019-01-27T03:27:09.297Z,874.39
2019-01-27T03:28:09.550Z,874.39
2019-01-27T03:29:09.312Z,874.38
2019-01-27T03:30:09.565Z,874.41
2019-01-27T03:31:09.324Z,874.41
2019-01-27T03:32:09.306Z,874.43
2019-01-27T03:33:09.679Z,874.41
2019-01-27T03:34:09.667Z,874.43
2019-01-27T03:35:09.618Z,874.36
2019-01-27T03:36:09.626Z,874.37
2019-01-27T03:37:09.227Z,874.33
2019-01-27T03:38:09.462Z,874.35
2019-01-27T03:39:09.271Z,874.35
2019-01-27T03:40:09.464Z,874.28
2019-01-27T03:41:09.231Z,874.31
2019-01-27T03:42:09.194Z,874.29
2019-01-27T03:43:09.193Z,874.29
2019-01-27T03:44:09.438Z,874.30
2019-01-27T03:45:09.200Z,874.28
2019-01-27T03:46:09.427Z,874.33
2019-01-27T03:47:09.160Z,874.32
2019-01-27T03:48:09.196Z,874.28
2019-01-27T03:49:09.146Z,874.34
2019-01-27T03:50:09.399Z,874.32
2019-01-27T03:51:09.138Z,874.33
2019-01-27T03:52:09.388Z,874.33
2019-01-27T03:53:09.375Z,874.35
2019-01-27T03:54:09.138Z,874.35
2019-01-27T03:55:09.405Z,874.33
2019-01-27T03:56:09.093Z,874.30
2019-01-27T03:57:09.357Z,874.32
2019-01-27T03:58:09.103Z,874.30
2019-01-27T03:59:09.114Z,874.27
2019-01-27T04:00:09.497Z,874.27
2019-01-27T04:01:09.448Z,874.28
2019-01-27T04:02:09.414Z,874.30
2019-01-27T04:03:09.040Z,874.28
2019-01-27T04:04:09.037Z,874.25
2019-01-27T04:05:09.074Z,874.24
2019-01-27T04:06:09.413Z,874.21
2019-01-27T04:07:09.016Z,874.18
2019-01-27T04:08:09.299Z,874.15
2019-01-27T04:09:09.012Z,874.13
2019-01-27T04:10:08.995Z,874.15
2019-01-27T04:11:08.993Z,874.11
2019-01-27T04:12:09.261Z,874.06
2019-01-27T04:13:08.992Z,874.03
2019-01-27T04:14:08.999Z,874.00
2019-01-27T04:15:09.245Z,874.03
2019-01-27T04:16:09.264Z,874.06
2019-01-27T04:17:09.213Z,874.01
2019-01-27T04:18:08.986Z,874.02
2019-01-27T04:19:08.944Z,874.02
2019-01-27T04:20:09.165Z,874.01
2019-01-27T04:21:08.917Z,874.01
2019-01-27T04:22:08.917Z,874.00
2019-01-27T04:23:09.213Z,874.07
2019-01-27T04:24:09.205Z,874.05
2019-01-27T04:25:09.139Z,874.03
2019-01-27T04:26:09.157Z,874.02
2019-01-27T04:27:09.164Z,874.01
2019-01-27T04:28:08.871Z,873.99
2019-01-27T04:29:09.145Z,873.95
2019-01-27T04:30:08.866Z,873.98
2019-01-27T04:31:08.847Z,873.96
2019-01-27T04:32:09.104Z,873.97
2019-01-27T04:33:08.885Z,873.91
2019-01-27T04:34:09.106Z,873.92
2019-01-27T04:35:09.122Z,873.89
2019-01-27T04:36:08.864Z,873.91
2019-01-27T04:37:09.085Z,873.95
2019-01-27T04:38:09.109Z,873.91
2019-01-27T04:39:08.847Z,873.87
2019-01-27T04:40:09.209Z,873.89
2019-01-27T04:41:09.152Z,873.86
2019-01-27T04:42:09.161Z,873.87
2019-01-27T04:43:08.800Z,873.86
2019-01-27T04:44:08.801Z,873.86
2019-01-27T04:45:09.148Z,873.86
2019-01-27T04:46:09.062Z,873.84
2019-01-27T04:47:09.043Z,873.86
2019-01-27T04:48:08.788Z,873.80
2019-01-27T04:49:08.968Z,873.84
2019-01-27T04:50:09.017Z,873.80
2019-01-27T04:51:08.986Z,873.79
2019-01-27T04:52:08.977Z,873.77
2019-01-27T04:53:09.092Z,873.71
2019-01-27T04:54:09.107Z,873.69
2019-01-27T04:55:09.071Z,873.69
2019-01-27T04:56:08.691Z,873.66
2019-01-27T04:57:08.669Z,873.68
2019-01-27T04:58:09.044Z,873.65
2019-01-27T04:59:09.074Z,873.61
2019-01-27T05:00:08.662Z,873.54
2019-01-27T05:01:08.926Z,873.53
2019-01-27T05:02:08.927Z,873.54
2019-01-27T05:03:08.883Z,873.52
2019-01-27T05:04:08.670Z,873.51
2019-01-27T05:05:08.893Z,873.50
2019-01-27T05:06:08.664Z,873.49
2019-01-27T05:07:08.614Z,873.47
2019-01-27T05:08:08.644Z,873.45
2019-01-27T05:09:08.589Z,873.41
2019-01-27T05:10:08.628Z,873.40
2019-01-27T05:11:08.844Z,873.41
2019-01-27T05:12:08.575Z,873.47
2019-01-27T05:13:08.573Z,873.43
2019-01-27T05:14:08.607Z,873.43
2019-01-27T05:15:08.823Z,873.38
2019-01-27T05:16:08.819Z,873.37
2019-01-27T05:17:08.572Z,873.40
2019-01-27T05:18:08.785Z,873.43
2019-01-27T05:19:08.792Z,873.35
2019-01-27T05:20:08.523Z,873.38
2019-01-27T05:21:08.817Z,873.38
2019-01-27T05:22:08.771Z,873.33
2019-01-27T05:23:08.738Z,873.32
2019-01-27T05:24:08.755Z,873.35
2019-01-27T05:25:08.864Z,873.35
2019-01-27T05:26:08.898Z,873.34
2019-01-27T05:27:08.853Z,873.36
2019-01-27T05:28:08.477Z,873.34
2019-01-27T05:29:08.881Z,873.29
2019-01-27T05:30:08.493Z,873.27
2019-01-27T05:31:08.818Z,873.28
2019-01-27T05:32:08.484Z,873.30
2019-01-27T05:33:08.703Z,873.27
2019-01-27T05:34:08.660Z,873.23
2019-01-27T05:35:08.690Z,873.24
2019-01-27T05:36:08.448Z,873.25
2019-01-27T05:37:08.825Z,873.25
2019-01-27T05:38:08.433Z,873.23
2019-01-27T05:39:08.434Z,873.23
2019-01-27T05:40:08.379Z,873.27
2019-01-27T05:41:08.409Z,873.25
2019-01-27T05:42:08.747Z,873.30
2019-01-27T05:43:08.372Z,873.31
2019-01-27T05:44:08.597Z,873.27
2019-01-27T05:45:08.621Z,873.29
2019-01-27T05:46:08.382Z,873.26
2019-01-27T05:47:08.644Z,873.28
2019-01-27T05:48:08.333Z,873.25
2019-01-27T05:49:08.606Z,873.22
2019-01-27T05:50:08.581Z,873.19
2019-01-27T05:51:08.311Z,873.16
2019-01-27T05:52:08.545Z,873.16
2019-01-27T05:53:08.557Z,873.15
2019-01-27T05:54:08.536Z,873.13
2019-01-27T05:55:08.306Z,873.15
2019-01-27T05:56:08.274Z,873.13
2019-01-27T05:57:08.559Z,873.13
2019-01-27T05:58:08.552Z,873.10
2019-01-27T05:59:08.511Z,873.15
2019-01-27T06:00:08.513Z,873.12
2019-01-27T06:01:08.238Z,873.09
2019-01-27T06:02:08.498Z,873.05
2019-01-27T06:03:08.218Z,873.05
2019-01-27T06:04:08.256Z,873.05
2019-01-27T06:05:08.504Z,873.03
2019-01-27T06:06:08.300Z,873.00
2019-01-27T06:07:08.467Z,872.97
2019-01-27T06:08:08.239Z,872.96
2019-01-27T06:09:08.484Z,872.98
2019-01-27T06:10:08.442Z,872.97
2019-01-27T06:11:08.420Z,872.93
2019-01-27T06:12:08.397Z,872.89
2019-01-27T06:13:08.203Z,872.86
2019-01-27T06:14:08.155Z,872.87
2019-01-27T06:15:08.187Z,872.88
2019-01-27T06:16:08.382Z,872.90
2019-01-27T06:17:08.385Z,872.82
2019-01-27T06:18:08.158Z,872.81
2019-01-27T06:19:08.350Z,872.76
2019-01-27T06:20:08.347Z,872.80
2019-01-27T06:21:08.400Z,872.76
2019-01-27T06:22:08.141Z,872.76
2019-01-27T06:23:08.103Z,872.77
2019-01-27T06:24:08.116Z,872.78
2019-01-27T06:25:08.336Z,872.74
2019-01-27T06:26:08.433Z,872.74
2019-01-27T06:27:08.471Z,872.70
2019-01-27T06:28:08.068Z,872.69
2019-01-27T06:29:08.062Z,872.66
2019-01-27T06:30:08.056Z,872.65
2019-01-27T06:31:08.445Z,872.66
2019-01-27T06:32:08.381Z,872.65
2019-01-27T06:33:08.028Z,872.64
2019-01-27T06:34:08.392Z,872.62
2019-01-27T06:35:08.246Z,872.59
2019-01-27T06:36:08.262Z,872.59
2019-01-27T06:37:07.996Z,872.61
2019-01-27T06:38:08.253Z,872.60
2019-01-27T06:39:07.989Z,872.58
2019-01-27T06:40:08.006Z,872.55
2019-01-27T06:41:08.225Z,872.53
2019-01-27T06:42:07.955Z,872.55
2019-01-27T06:43:08.248Z,872.50
2019-01-27T06:44:08.189Z,872.50
2019-01-27T06:45:08.177Z,872.51
2019-01-27T06:46:08.219Z,872.56
2019-01-27T06:47:07.955Z,872.55
2019-01-27T06:48:08.178Z,872.49
2019-01-27T06:49:07.910Z,872.49
2019-01-27T06:50:08.143Z,872.47
2019-01-27T06:51:07.933Z,872.51
2019-01-27T06:52:07.902Z,872.48
2019-01-27T06:53:08.178Z,872.48
2019-01-27T06:54:08.142Z,872.51
2019-01-27T06:55:07.869Z,872.48
2019-01-27T06:56:08.166Z,872.49
2019-01-27T06:57:07.844Z,872.52
2019-01-27T06:58:08.087Z,872.52
2019-01-27T06:59:08.076Z,872.52
2019-01-27T07:00:08.127Z,872.57
2019-01-27T07:01:07.851Z,872.56
2019-01-27T07:02:08.055Z,872.54
2019-01-27T07:03:08.046Z,872.50
2019-01-27T07:04:07.851Z,872.51
2019-01-27T07:05:08.072Z,872.49
2019-01-27T07:06:08.028Z,872.44
2019-01-27T07:07:07.815Z,872.46
2019-01-27T07:08:08.041Z,872.44
2019-01-27T07:09:07.775Z,872.42
2019-01-27T07:10:07.774Z,872.40
2019-01-27T07:11:07.766Z,872.43
2019-01-27T07:12:07.784Z,872.43
2019-01-27T07:13:07.795Z,872.43
2019-01-27T07:14:07.977Z,872.44
2019-01-27T07:15:07.985Z,872.40
2019-01-27T07:16:08.086Z,872.38
2019-01-27T07:17:08.105Z,872.37
2019-01-27T07:18:08.090Z,872.39
2019-01-27T07:19:08.091Z,872.39
2019-01-27T07:20:07.698Z,872.40
2019-01-27T07:21:07.731Z,872.39
2019-01-27T07:22:07.726Z,872.39
2019-01-27T07:23:08.051Z,872.34
2019-01-27T07:24:07.705Z,872.34
2019-01-27T07:25:07.668Z,872.36
2019-01-27T07:26:07.940Z,872.31
2019-01-27T07:27:07.686Z,872.34
2019-01-27T07:28:07.894Z,872.36
2019-01-27T07:29:07.919Z,872.42
2019-01-27T07:30:07.637Z,872.42
2019-01-27T07:31:07.859Z,872.42
2019-01-27T07:32:07.654Z,872.42
2019-01-27T07:33:07.862Z,872.40
2019-01-27T07:34:07.883Z,872.38
2019-01-27T07:35:07.842Z,872.42
2019-01-27T07:36:07.837Z,872.42
2019-01-27T07:37:07.869Z,872.44
2019-01-27T07:38:07.562Z,872.45
2019-01-27T07:39:07.607Z,872.48
2019-01-27T07:40:07.556Z,872.49
2019-01-27T07:41:07.799Z,872.45
2019-01-27T07:42:07.803Z,872.52
2019-01-27T07:43:07.574Z,872.46
2019-01-27T07:44:07.530Z,872.45
2019-01-27T07:45:07.819Z,872.45
2019-01-27T07:46:07.557Z,872.48
2019-01-27T07:47:07.547Z,872.49
2019-01-27T07:48:07.777Z,872.44
2019-01-27T07:49:07.773Z,872.44
2019-01-27T07:50:07.744Z,872.44
2019-01-27T07:51:07.520Z,872.43
2019-01-27T07:52:07.776Z,872.43
2019-01-27T07:53:07.743Z,872.46
2019-01-27T07:54:07.704Z,872.41
2019-01-27T07:55:07.451Z,872.43
2019-01-27T07:56:07.444Z,872.46
2019-01-27T07:57:07.723Z,872.45
2019-01-27T07:58:07.674Z,872.40
2019-01-27T07:59:07.708Z,872.47
2019-01-27T08:00:07.428Z,872.47
2019-01-27T08:01:07.672Z,872.47
2019-01-27T08:02:07.682Z,872.44
2019-01-27T08:03:11.955Z,872.41
2019-01-27T08:04:07.673Z,872.37
2019-01-27T08:05:07.652Z,872.33
2019-01-27T08:06:07.622Z,872.26
2019-01-27T08:07:07.616Z,872.27
2019-01-27T08:08:07.621Z,872.33
2019-01-27T08:09:07.623Z,872.33
2019-01-27T08:10:07.352Z,872.31
2019-01-27T08:11:07.376Z,872.24
2019-01-27T08:12:07.646Z,872.27
2019-01-27T08:13:07.582Z,872.22
2019-01-27T08:14:07.631Z,872.19
2019-01-27T08:15:07.590Z,872.16
2019-01-27T08:16:07.581Z,872.09
2019-01-27T08:17:07.556Z,872.08
2019-01-27T08:18:07.334Z,872.08
2019-01-27T08:19:07.528Z,872.03
2019-01-27T08:20:07.578Z,872.05
2019-01-27T08:21:07.566Z,872.02
2019-01-27T08:22:07.277Z,872.00
2019-01-27T08:23:07.305Z,871.99
2019-01-27T08:24:07.523Z,871.98
2019-01-27T08:25:07.549Z,872.00
2019-01-27T08:26:07.240Z,872.01
2019-01-27T08:27:07.228Z,872.01
2019-01-27T08:28:07.260Z,872.05
2019-01-27T08:29:07.471Z,872.06
2019-01-27T08:30:07.588Z,872.08
2019-01-27T08:31:07.595Z,872.09
2019-01-27T08:32:07.552Z,872.12
2019-01-27T08:33:07.191Z,872.14
2019-01-27T08:34:07.596Z,872.14
2019-01-27T08:35:07.593Z,872.16
2019-01-27T08:36:07.526Z,872.19
2019-01-27T08:37:07.207Z,872.19
2019-01-27T08:38:07.576Z,872.19
2019-01-27T08:39:07.148Z,872.21
2019-01-27T08:40:07.408Z,872.22
2019-01-27T08:41:07.132Z,872.20
2019-01-27T08:42:07.132Z,872.19
2019-01-27T08:43:07.164Z,872.18
2019-01-27T08:44:07.387Z,872.18
2019-01-27T08:45:07.112Z,872.12
2019-01-27T08:46:07.102Z,872.07
2019-01-27T08:47:07.371Z,872.08
2019-01-27T08:48:07.365Z,872.07
2019-01-27T08:49:07.375Z,872.00
2019-01-27T08:50:07.087Z,872.06
2019-01-27T08:51:07.348Z,872.01
2019-01-27T08:52:07.066Z,871.97
2019-01-27T08:53:07.354Z,871.99
2019-01-27T08:54:07.087Z,872.01
2019-01-27T08:55:07.033Z,871.99
2019-01-27T08:56:07.042Z,872.00
2019-01-27T08:57:07.057Z,872.01
2019-01-27T08:58:07.020Z,871.99
2019-01-27T08:59:07.009Z,872.02
2019-01-27T09:00:07.271Z,872.03
2019-01-27T09:01:07.290Z,872.05
2019-01-27T09:02:07.239Z,872.00
2019-01-27T09:03:07.018Z,872.03
2019-01-27T09:04:07.277Z,872.03
2019-01-27T09:05:07.005Z,872.01
2019-01-27T09:06:07.005Z,872.02
2019-01-27T09:07:07.218Z,872.03
2019-01-27T09:08:07.217Z,872.11
2019-01-27T09:09:06.979Z,872.16
2019-01-27T09:10:07.178Z,872.21
2019-01-27T09:11:06.926Z,872.20
2019-01-27T09:12:07.195Z,872.21
2019-01-27T09:13:11.175Z,872.20
2019-01-27T09:14:06.906Z,872.16
2019-01-27T09:15:07.138Z,872.17
2019-01-27T09:16:06.903Z,872.08
2019-01-27T09:17:06.890Z,872.08
2019-01-27T09:18:06.891Z,872.09
2019-01-27T09:19:07.147Z,872.12
2019-01-27T09:20:06.879Z,872.15
2019-01-27T09:21:07.144Z,872.11
2019-01-27T09:22:07.160Z,872.09
2019-01-27T09:23:07.142Z,872.07
2019-01-27T09:24:06.845Z,872.09
2019-01-27T09:25:06.836Z,872.10
2019-01-27T09:26:07.072Z,872.05
2019-01-27T09:27:07.092Z,872.06
2019-01-27T09:28:07.114Z,872.03
2019-01-27T09:29:07.047Z,872.02
2019-01-27T09:30:07.035Z,872.03
2019-01-27T09:31:06.793Z,872.01
2019-01-27T09:32:06.784Z,872.02
2019-01-27T09:33:06.827Z,872.03
2019-01-27T09:34:12.974Z,872.02
2019-01-27T09:35:07.042Z,872.05
2019-01-27T09:36:07.035Z,872.02
2019-01-27T09:37:06.748Z,872.01
2019-01-27T09:38:07.053Z,871.94
2019-01-27T09:39:06.994Z,871.93
2019-01-27T09:40:06.775Z,871.90
2019-01-27T09:41:06.757Z,871.89
2019-01-27T09:42:06.729Z,871.83
2019-01-27T09:43:06.954Z,871.80
2019-01-27T09:44:06.961Z,871.80
2019-01-27T09:45:06.960Z,871.82
2019-01-27T09:46:11.228Z,871.76
2019-01-27T09:47:07.105Z,871.76
2019-01-27T09:48:06.717Z,871.77
2019-01-27T09:49:07.061Z,871.76
2019-01-27T09:50:07.064Z,871.76
2019-01-27T09:51:07.031Z,871.76
2019-01-27T09:52:07.031Z,871.79
2019-01-27T09:53:06.681Z,871.77
2019-01-27T09:54:06.677Z,871.75
2019-01-27T09:55:06.863Z,871.75
2019-01-27T09:56:06.914Z,871.76
2019-01-27T09:57:06.918Z,871.82
2019-01-27T09:58:06.618Z,871.84
2019-01-27T09:59:06.639Z,871.84
2019-01-27T10:00:06.603Z,871.80
2019-01-27T10:01:06.587Z,871.82
2019-01-27T10:02:06.826Z,871.81
2019-01-27T10:03:06.605Z,871.82
2019-01-27T10:04:06.566Z,871.82
2019-01-27T10:05:06.833Z,871.82
2019-01-27T10:06:06.584Z,871.87
2019-01-27T10:07:06.813Z,871.87
2019-01-27T10:08:06.536Z,871.89
2019-01-27T10:09:06.770Z,871.89
2019-01-27T10:10:06.909Z,871.85
2019-01-27T10:11:06.518Z,871.86
2019-01-27T10:12:06.880Z,871.89
2019-01-27T10:13:06.557Z,871.82
2019-01-27T10:14:06.505Z,871.85
2019-01-27T10:15:06.864Z,871.79
2019-01-27T10:16:06.519Z,871.82
2019-01-27T10:17:06.870Z,871.84
2019-01-27T10:18:06.471Z,871.86
2019-01-27T10:19:06.762Z,871.82
2019-01-27T10:20:06.719Z,871.88
2019-01-27T10:21:06.713Z,871.87
2019-01-27T10:22:06.738Z,871.84
2019-01-27T10:23:06.693Z,871.87
2019-01-27T10:24:06.696Z,871.87
2019-01-27T10:25:06.714Z,871.83
2019-01-27T10:26:06.409Z,871.85
2019-01-27T10:27:06.651Z,871.82
2019-01-27T10:28:06.659Z,871.86
2019-01-27T10:29:06.669Z,871.82
2019-01-27T10:30:06.376Z,871.82
2019-01-27T10:31:06.373Z,871.78
2019-01-27T10:32:06.642Z,871.79
2019-01-27T10:33:06.411Z,871.79
2019-01-27T10:34:06.613Z,871.79
2019-01-27T10:35:06.357Z,871.76
2019-01-27T10:36:06.395Z,871.78
2019-01-27T10:37:12.066Z,871.75
2019-01-27T10:38:06.326Z,871.77
2019-01-27T10:39:06.587Z,871.77
2019-01-27T10:40:09.299Z,871.72
2019-01-27T10:41:06.545Z,871.76
2019-01-27T10:42:06.566Z,871.79
2019-01-27T10:43:06.592Z,871.73
2019-01-27T10:44:06.316Z,871.79
2019-01-27T10:45:06.579Z,871.80
2019-01-27T10:46:06.527Z,871.80
2019-01-27T10:47:06.542Z,871.78
2019-01-27T10:48:06.490Z,871.79
2019-01-27T10:49:06.280Z,871.78
2019-01-27T10:50:06.250Z,871.79
2019-01-27T10:51:06.230Z,871.76
2019-01-27T10:52:06.222Z,871.79
2019-01-27T10:53:06.523Z,871.79
2019-01-27T10:54:06.514Z,871.80
2019-01-27T10:55:06.468Z,871.79
2019-01-27T10:56:06.503Z,871.74
2019-01-27T10:57:06.195Z,871.75
2019-01-27T10:58:06.203Z,871.69
2019-01-27T10:59:06.465Z,871.72
2019-01-27T11:00:06.468Z,871.70
2019-01-27T11:01:06.475Z,871.71
2019-01-27T11:02:06.399Z,871.71
2019-01-27T11:03:06.455Z,871.72
2019-01-27T11:04:06.413Z,871.70
2019-01-27T11:05:06.178Z,871.73
2019-01-27T11:06:06.148Z,871.71
2019-01-27T11:07:06.361Z,871.67
2019-01-27T11:08:06.475Z,871.67
2019-01-27T11:09:06.392Z,871.68
2019-01-27T11:10:06.399Z,871.66
2019-01-27T11:11:06.355Z,871.65
2019-01-27T11:12:06.368Z,871.65
2019-01-27T11:13:06.362Z,871.66
2019-01-27T11:14:06.346Z,871.70
2019-01-27T11:15:06.340Z,871.65
2019-01-27T11:16:06.094Z,871.68
2019-01-27T11:17:06.064Z,871.68
2019-01-27T11:18:06.315Z,871.71
2019-01-27T11:19:06.038Z,871.69
2019-01-27T11:20:06.298Z,871.73
2019-01-27T11:21:06.066Z,871.73
2019-01-27T11:22:06.359Z,871.77
2019-01-27T11:23:06.280Z,871.75
2019-01-27T11:24:06.284Z,871.74
2019-01-27T11:25:06.016Z,871.76
2019-01-27T11:26:05.989Z,871.76
2019-01-27T11:27:05.990Z,871.75
2019-01-27T11:28:06.281Z,871.76
2019-01-27T11:29:05.980Z,871.76
2019-01-27T11:30:06.264Z,871.73
2019-01-27T11:31:06.234Z,871.71
2019-01-27T11:32:05.990Z,871.71
2019-01-27T11:33:05.952Z,871.70
2019-01-27T11:34:06.214Z,871.67
2019-01-27T11:35:06.226Z,871.69
2019-01-27T11:36:05.924Z,871.72
2019-01-27T11:37:05.968Z,871.69
2019-01-27T11:38:06.206Z,871.74
2019-01-27T11:39:05.914Z,871.73
2019-01-27T11:40:06.169Z,871.68
2019-01-27T11:41:05.905Z,871.70
2019-01-27T11:42:06.126Z,871.72
2019-01-27T11:43:06.156Z,871.73
2019-01-27T11:44:05.869Z,871.77
2019-01-27T11:45:05.877Z,871.72
2019-01-27T11:46:05.856Z,871.74
2019-01-27T11:47:05.893Z,871.75
2019-01-27T11:48:05.896Z,871.76
2019-01-27T11:49:06.107Z,871.77
2019-01-27T11:50:06.068Z,871.76
2019-01-27T11:51:06.081Z,871.73
2019-01-27T11:52:06.078Z,871.75
2019-01-27T11:53:05.850Z,871.76
2019-01-27T11:54:05.845Z,871.77
2019-01-27T11:55:05.832Z,871.76
2019-01-27T11:56:06.225Z,871.73
2019-01-27T11:57:06.201Z,871.74
2019-01-27T11:58:05.778Z,871.74
2019-01-27T11:59:05.809Z,871.74
2019-01-27T12:00:05.808Z,871.77
2019-01-27T12:01:06.166Z,871.78
2019-01-27T12:02:05.745Z,871.76
2019-01-27T12:03:05.780Z,871.76
2019-01-27T12:04:06.047Z,871.73
2019-01-27T12:05:05.732Z,871.75
2019-01-27T12:06:05.966Z,871.69
2019-01-27T12:07:05.726Z,871.67
2019-01-27T12:08:05.978Z,871.67
2019-01-27T12:09:05.957Z,871.65
2019-01-27T12:10:05.958Z,871.63
2019-01-27T12:11:05.693Z,871.63
2019-01-27T12:12:05.964Z,871.64
2019-01-27T12:13:05.705Z,871.66
2019-01-27T12:14:05.705Z,871.62
2019-01-27T12:15:05.925Z,871.63
2019-01-27T12:16:05.650Z,871.61
2019-01-27T12:17:05.917Z,871.61
2019-01-27T12:18:05.634Z,871.60
2019-01-27T12:19:05.865Z,871.63
2019-01-27T12:20:05.655Z,871.64
2019-01-27T12:21:05.874Z,871.65
2019-01-27T12:22:05.648Z,871.64
2019-01-27T12:23:05.869Z,871.61
2019-01-27T12:24:05.894Z,871.60
2019-01-27T12:25:05.842Z,871.64
2019-01-27T12:26:05.863Z,871.63
2019-01-27T12:27:06.553Z,871.60
2019-01-27T12:28:05.580Z,871.64